createdAt,value
2023-04-11T00:00:53.580Z,7.50
2023-04-11T00:06:02.355Z,7.50
2023-04-11T00:11:11.105Z,7.50
2023-04-11T00:16:19.685Z,7.40
2023-04-11T00:21:28.823Z,7.20
2023-04-11T00:26:37.617Z,7.10
2023-04-11T00:31:47.074Z,7.00
2023-04-11T00:36:55.660Z,7.00
2023-04-11T00:42:04.601Z,7.00
2023-04-11T00:47:13.211Z,7.00
2023-04-11T00:52:21.769Z,7.00
2023-04-11T00:57:30.444Z,6.90
2023-04-11T01:02:39.700Z,6.80
2023-04-11T01:07:48.573Z,6.80
2023-04-11T01:12:57.419Z,6.80
2023-04-11T01:18:06.087Z,6.80
2023-04-11T01:23:15.122Z,6.70
2023-04-11T01:28:23.394Z,6.50
2023-04-11T01:33:32.086Z,6.40
2023-04-11T01:38:40.449Z,6.30
2023-04-11T01:43:49.633Z,6.20
2023-04-11T01:48:58.859Z,6.20
2023-04-11T01:54:07.784Z,6.20
2023-04-11T01:59:16.591Z,6.10
2023-04-11T02:04:25.648Z,6.10
2023-04-11T02:09:34.268Z,6.10
2023-04-11T02:14:43.502Z,6.00
2023-04-11T02:19:52.127Z,5.80
2023-04-11T02:25:00.916Z,5.80
2023-04-11T02:30:09.645Z,5.80
2023-04-11T02:35:18.858Z,5.80
2023-04-11T02:40:27.665Z,5.80
2023-04-11T02:45:36.463Z,5.80
2023-04-11T02:50:45.026Z,5.80
2023-04-11T02:55:54.386Z,5.80
2023-04-11T03:01:02.684Z,5.60
2023-04-11T03:06:11.737Z,5.50
2023-04-11T03:11:20.351Z,5.50
2023-04-11T03:16:29.476Z,5.60
2023-04-11T03:21:38.289Z,5.60
2023-04-11T03:26:47.214Z,5.60
2023-04-11T03:31:55.957Z,5.60
2023-04-11T03:37:05.016Z,5.70
2023-04-11T03:42:13.912Z,5.70
2023-04-11T03:47:23.057Z,5.80
2023-04-11T03:52:31.936Z,6.00
2023-04-11T03:57:41.363Z,6.10
2023-04-11T04:02:50.005Z,6.20
2023-04-11T04:07:58.682Z,6.30
2023-04-11T04:13:07.701Z,6.40
2023-04-11T04:18:16.535Z,6.60
2023-04-11T04:23:25.674Z,6.90
2023-04-11T04:28:34.914Z,7.10
2023-04-11T04:33:44.026Z,7.30
2023-04-11T04:38:52.939Z,7.50
2023-04-11T04:44:01.629Z,7.70
2023-04-11T04:49:10.688Z,8.00
2023-04-11T04:54:19.257Z,8.20
2023-04-11T04:59:28.614Z,8.40
2023-04-11T05:04:37.854Z,8.60
2023-04-11T05:09:46.834Z,8.70
2023-04-11T05:14:55.773Z,9.00
2023-04-11T05:20:05.542Z,9.30
2023-04-11T05:25:14.434Z,9.60
2023-04-11T05:30:23.453Z,9.90
2023-04-11T05:35:32.182Z,10.20
2023-04-11T05:40:42.288Z,10.60
2023-04-11T05:45:41.131Z,11.00
2023-04-11T05:50:50.193Z,11.40
2023-04-11T05:55:59.214Z,11.70
2023-04-11T06:01:08.714Z,12.30
2023-04-11T06:06:18.325Z,13.00
2023-04-11T06:11:27.730Z,13.40
2023-04-11T06:16:36.423Z,13.70
2023-04-11T06:21:45.631Z,14.10
2023-04-11T06:26:54.444Z,14.60
2023-04-11T06:32:03.849Z,15.40
2023-04-11T06:37:12.671Z,16.10
2023-04-11T06:42:22.282Z,16.20
2023-04-11T06:47:31.150Z,16.20
2023-04-11T06:52:40.344Z,16.30
2023-04-11T06:57:49.117Z,16.20
2023-04-11T07:02:58.338Z,16.30
2023-04-11T07:08:07.207Z,16.60
2023-04-11T07:13:16.676Z,16.90
2023-04-11T07:18:25.570Z,17.30
2023-04-11T07:23:34.773Z,17.50
2023-04-11T07:28:43.795Z,17.70
2023-04-11T07:33:53.549Z,18.00
2023-04-11T07:39:02.416Z,18.40
2023-04-11T07:44:11.605Z,18.60
2023-04-11T07:49:20.559Z,18.90
2023-04-11T08:04:48.493Z,19.60
2023-04-11T08:15:06.998Z,20.10
2023-04-11T08:20:16.600Z,20.30
2023-04-11T08:25:26.408Z,20.60
2023-04-11T08:30:35.253Z,20.70
2023-04-11T08:35:44.842Z,21.10
2023-04-11T08:40:53.433Z,21.20
2023-04-11T08:46:03.576Z,21.60
2023-04-11T08:51:12.225Z,21.90
2023-04-11T08:56:21.457Z,22.40
2023-04-11T09:01:30.240Z,22.20
2023-04-11T09:06:38.904Z,22.30
2023-04-11T09:11:47.784Z,22.60
2023-04-11T09:16:56.847Z,22.80
2023-04-11T09:22:05.707Z,23.30
2023-04-11T09:27:15.561Z,23.50
2023-04-11T09:32:24.322Z,23.70
2023-04-11T09:37:33.739Z,23.80
2023-04-11T09:42:42.036Z,23.80
2023-04-11T09:47:51.151Z,23.30
2023-04-11T09:52:59.999Z,23.00
2023-04-11T09:58:09.240Z,23.20
2023-04-11T10:03:18.302Z,23.30
2023-04-11T10:08:27.784Z,23.10
2023-04-11T10:13:36.176Z,22.70
2023-04-11T10:18:45.391Z,22.40
2023-04-11T10:23:55.209Z,22.10
2023-04-11T10:29:03.819Z,21.90
2023-04-11T10:34:12.505Z,21.70
2023-04-11T10:39:21.448Z,21.70
2023-04-11T10:44:30.148Z,21.80
2023-04-11T10:49:39.278Z,21.90
2023-04-11T10:54:47.780Z,22.00
2023-04-11T10:59:57.024Z,22.20
2023-04-11T11:05:05.809Z,22.20
2023-04-11T11:10:15.289Z,22.20
2023-04-11T11:15:23.663Z,22.10
2023-04-11T11:20:32.708Z,21.80
2023-04-11T11:25:41.610Z,21.60
2023-04-11T11:30:51.603Z,21.60
2023-04-11T11:35:58.710Z,21.60
2023-04-11T11:41:07.899Z,21.50
2023-04-11T11:46:16.553Z,21.50
2023-04-11T11:51:26.457Z,21.60
2023-04-11T11:56:35.534Z,21.70
2023-04-11T12:01:46.477Z,21.60
2023-04-11T12:06:45.098Z,21.60
2023-04-11T12:11:54.384Z,21.50
2023-04-11T12:17:03.550Z,21.40
2023-04-11T12:22:13.359Z,21.50
2023-04-11T12:27:22.206Z,21.70
2023-04-11T12:32:31.874Z,21.90
2023-04-11T12:37:40.749Z,22.10
2023-04-11T12:42:56.819Z,22.40
2023-04-11T12:47:59.098Z,22.50
2023-04-11T12:53:08.659Z,22.60
2023-04-11T12:58:17.378Z,22.90
2023-04-11T13:03:27.810Z,23.10
2023-04-11T13:08:26.354Z,23.30
2023-04-11T13:13:36.995Z,23.50
2023-04-11T13:18:35.315Z,23.60
2023-04-11T13:23:44.544Z,23.60
2023-04-11T13:28:53.067Z,23.80
2023-04-11T13:34:02.462Z,23.90
2023-04-11T13:39:11.117Z,24.00
2023-04-11T13:44:20.251Z,24.00
2023-04-11T13:49:28.852Z,24.00
2023-04-11T13:54:38.062Z,24.00
2023-04-11T13:59:47.124Z,23.70
2023-04-11T14:04:56.325Z,23.20
2023-04-11T14:10:05.716Z,22.70
2023-04-11T14:15:15.120Z,22.50
2023-04-11T14:20:24.283Z,22.30
2023-04-11T14:25:33.786Z,21.80
2023-04-11T14:30:42.379Z,21.70
2023-04-11T14:35:51.366Z,21.60
2023-04-11T14:40:59.920Z,21.60
2023-04-11T14:46:08.880Z,21.50
2023-04-11T14:51:17.716Z,21.50
2023-04-11T14:56:27.075Z,21.20
2023-04-11T15:01:35.858Z,21.10
2023-04-11T15:06:45.180Z,21.20
2023-04-11T15:11:54.014Z,21.40
2023-04-11T15:17:04.042Z,21.50
2023-04-11T15:22:02.827Z,21.60
2023-04-11T15:27:11.890Z,21.60
2023-04-11T15:32:20.330Z,21.70
2023-04-11T15:37:30.154Z,22.10
2023-04-11T15:42:38.828Z,22.70
2023-04-11T15:47:48.896Z,23.20
2023-04-11T15:52:47.540Z,23.50
2023-04-11T15:57:57.651Z,23.60
2023-04-11T16:03:00.060Z,23.70
2023-04-11T16:07:58.426Z,23.50
2023-04-11T16:13:07.338Z,23.20
2023-04-11T16:18:16.441Z,22.90
2023-04-11T16:23:24.970Z,22.50
2023-04-11T16:28:34.143Z,21.80
2023-04-11T16:33:42.758Z,20.90
2023-04-11T16:44:00.757Z,19.20
2023-04-11T16:49:10.770Z,18.50
2023-04-11T16:54:09.546Z,17.90
2023-04-11T16:59:18.861Z,17.40
2023-04-11T17:04:27.467Z,16.90
2023-04-11T17:09:36.788Z,16.60
2023-04-11T17:14:45.312Z,16.20
2023-04-11T17:19:54.104Z,15.80
2023-04-11T17:25:02.511Z,15.40
2023-04-11T17:30:11.607Z,15.10
2023-04-11T17:35:20.122Z,14.80
2023-04-11T17:40:29.094Z,14.60
2023-04-11T17:45:37.709Z,14.40
2023-04-11T17:50:46.715Z,14.20
2023-04-11T17:55:55.565Z,14.00
2023-04-11T18:01:05.249Z,13.80
2023-04-11T18:06:14.014Z,13.50
2023-04-11T18:11:23.688Z,13.30
2023-04-11T18:16:32.584Z,13.00
2023-04-11T18:21:41.394Z,12.80
2023-04-11T18:26:50.025Z,12.60
2023-04-11T18:31:59.564Z,12.40
2023-04-11T18:37:08.114Z,12.20
2023-04-11T18:42:17.041Z,12.10
2023-04-11T18:47:26.123Z,11.90
2023-04-11T18:52:35.386Z,11.70
2023-04-11T18:57:46.732Z,11.70
2023-04-11T19:02:52.787Z,11.60
2023-04-11T19:08:01.369Z,11.60
2023-04-11T19:13:10.723Z,11.50
2023-04-11T19:18:19.607Z,11.30
2023-04-11T19:23:28.923Z,11.30
2023-04-11T19:28:37.618Z,11.30
2023-04-11T19:33:46.778Z,11.20
2023-04-11T19:38:55.621Z,11.20
2023-04-11T19:44:05.169Z,11.10
2023-04-11T19:49:13.616Z,11.10
2023-04-11T19:54:22.539Z,11.00
2023-04-11T19:59:31.168Z,11.00
2023-04-11T20:04:39.915Z,11.00
2023-04-11T20:09:48.865Z,10.90
2023-04-11T20:14:58.197Z,10.90
2023-04-11T20:20:06.789Z,10.90
2023-04-11T20:25:15.637Z,10.90
2023-04-11T20:30:24.209Z,10.80
2023-04-11T20:35:33.106Z,10.70
2023-04-11T20:40:41.615Z,10.60
2023-04-11T20:45:51.100Z,10.60
2023-04-11T20:51:00.253Z,10.50
2023-04-11T20:56:09.309Z,10.40
2023-04-11T21:01:30.184Z,10.40
2023-04-11T21:06:18.653Z,10.30
2023-04-11T21:11:27.405Z,10.30
2023-04-11T21:16:36.597Z,10.20
2023-04-11T21:21:45.243Z,10.10
2023-04-11T21:26:54.120Z,10.10
2023-04-11T21:32:02.858Z,10.00
2023-04-11T21:37:11.897Z,10.00
2023-04-11T21:42:20.604Z,10.00
2023-04-11T21:47:29.822Z,9.90
2023-04-11T21:52:38.572Z,9.90
2023-04-11T21:57:47.579Z,9.90
2023-04-11T22:02:56.632Z,9.90
2023-04-11T22:08:05.311Z,9.90
2023-04-11T22:13:13.625Z,9.90
2023-04-11T22:18:22.226Z,9.90
2023-04-11T22:23:30.835Z,9.80
2023-04-11T22:28:39.844Z,9.80
2023-04-11T22:33:48.407Z,9.70
2023-04-11T22:38:57.572Z,9.60
2023-04-11T22:44:06.344Z,9.60
2023-04-11T22:49:15.013Z,9.50
2023-04-11T22:54:23.643Z,9.50
2023-04-11T22:59:32.946Z,9.50
2023-04-11T23:04:41.544Z,9.40
2023-04-11T23:09:50.478Z,9.40
2023-04-11T23:14:58.980Z,9.30
2023-04-11T23:20:08.052Z,9.20
2023-04-11T23:25:16.830Z,9.20
2023-04-11T23:30:26.000Z,9.10
2023-04-11T23:35:34.722Z,9.10
2023-04-11T23:40:43.803Z,9.10
2023-04-11T23:45:52.333Z,9.10
2023-04-11T23:51:01.285Z,9.10
2023-04-11T23:56:09.961Z,9.10
